RYR99CK LFMK-EGCC
Flight info
| Callsign | RYR99CK |
|---|---|
| Flight time | 1h 40m |
| Altitude | 36000 |
| Route | GALDO3E GALDO DCT TOU DCT CHALA DCT TUPAR UY120 AKIKI UN867 AVANT UM184 HEMEL T420 ELVOS ELVOS1M |
| Aircraft | B738/M-SDE2E3FGHIRWXY/LB1 |
Departure
| Time | 2026-05-01 12:58 |
|---|---|
| Airport | Carcassonne Salvaza Airport (LFMK) |
Arrival
| Time | 2026-05-01 14:38 |
|---|---|
| Airport | Manchester Airport (EGCC) |
| Time | Latitude | Longitude | Altitude | Speed | Heading |
|---|---|---|---|---|---|
| 2026-05-01 12:24 | 43.21416 | 2.30470 | 422 ft | 0 kts | 316° |
| 2026-05-01 12:25 | 43.21417 | 2.30470 | 422 ft | 0 kts | 316° |
| 2026-05-01 12:53 | 43.21429 | 2.30465 | 415 ft | 5 kts | 351° |
| 2026-05-01 12:53 | 43.21470 | 2.30465 | 422 ft | 6 kts | 5° |
| 2026-05-01 12:54 | 43.21512 | 2.30471 | 422 ft | 6 kts | 7° |
| 2026-05-01 12:54 | 43.21595 | 2.30481 | 418 ft | 6 kts | 345° |
| 2026-05-01 12:54 | 43.21615 | 2.30435 | 424 ft | 6 kts | 279° |
| 2026-05-01 12:55 | 43.21632 | 2.30231 | 424 ft | 14 kts | 276° |
| 2026-05-01 12:55 | 43.21642 | 2.30101 | 415 ft | 14 kts | 277° |
| 2026-05-01 12:55 | 43.21654 | 2.29960 | 425 ft | 17 kts | 276° |
| 2026-05-01 12:56 | 43.21670 | 2.29751 | 411 ft | 25 kts | 276° |
| 2026-05-01 12:56 | 43.21685 | 2.29571 | 417 ft | 13 kts | 276° |
| 2026-05-01 12:56 | 43.21695 | 2.29447 | 422 ft | 13 kts | 276° |
| 2026-05-01 12:56 | 43.21707 | 2.29378 | 414 ft | 6 kts | 306° |
| 2026-05-01 12:57 | 43.21721 | 2.29345 | 419 ft | 4 kts | 258° |
| 2026-05-01 12:57 | 43.21699 | 2.29390 | 411 ft | 4 kts | 95° |
| 2026-05-01 12:57 | 43.21696 | 2.29431 | 422 ft | 8 kts | 96° |
| 2026-05-01 12:58 | 43.21664 | 2.29828 | 423 ft | 79 kts | 96° |
| 2026-05-01 12:58 | 43.21581 | 2.30878 | 444 ft | 138 kts | 96° |
| 2026-05-01 12:58 | 43.21461 | 2.32275 | 1043 ft | 147 kts | 97° |
| 2026-05-01 12:59 | 43.22154 | 2.34786 | 2461 ft | 191 kts | 34° |
| 2026-05-01 12:59 | 43.23624 | 2.34928 | 2732 ft | 238 kts | 349° |
| 2026-05-01 12:59 | 43.26524 | 2.32058 | 3507 ft | 287 kts | 299° |
| 2026-05-01 13:00 | 43.26326 | 2.26949 | 5157 ft | 269 kts | 225° |
| 2026-05-01 13:00 | 43.25049 | 2.25156 | 6225 ft | 262 kts | 222° |
| 2026-05-01 13:01 | 43.22721 | 2.21138 | 7778 ft | 277 kts | 242° |
| 2026-05-01 13:01 | 43.22413 | 2.18519 | 8603 ft | 284 kts | 272° |
| 2026-05-01 13:01 | 43.22851 | 2.13090 | 10300 ft | 289 kts | 274° |
| 2026-05-01 13:02 | 43.23094 | 2.10299 | 10798 ft | 305 kts | 275° |
| 2026-05-01 13:07 | 43.51037 | 1.48725 | 22359 ft | 431 kts | 320° |
| 2026-05-01 13:07 | 43.53448 | 1.46229 | 22857 ft | 434 kts | 320° |
| 2026-05-01 13:07 | 43.55865 | 1.43722 | 23356 ft | 436 kts | 321° |
| 2026-05-01 13:08 | 43.58294 | 1.41202 | 23836 ft | 438 kts | 320° |
| 2026-05-01 13:08 | 43.60735 | 1.38666 | 24238 ft | 440 kts | 320° |
| 2026-05-01 13:08 | 43.63189 | 1.36116 | 24637 ft | 442 kts | 320° |
| 2026-05-01 13:08 | 43.65653 | 1.33553 | 25032 ft | 444 kts | 320° |
| 2026-05-01 13:09 | 43.68153 | 1.31012 | 25408 ft | 447 kts | 324° |
| 2026-05-01 13:09 | 43.70866 | 1.28865 | 25766 ft | 452 kts | 330° |
| 2026-05-01 13:09 | 43.73698 | 1.26933 | 26132 ft | 455 kts | 331° |
| 2026-05-01 13:09 | 43.76520 | 1.25066 | 26483 ft | 457 kts | 332° |
| 2026-05-01 13:10 | 43.79403 | 1.23164 | 26828 ft | 459 kts | 332° |
| 2026-05-01 13:10 | 43.82292 | 1.21241 | 27143 ft | 461 kts | 331° |
| 2026-05-01 13:10 | 43.85180 | 1.19296 | 27454 ft | 463 kts | 332° |
| 2026-05-01 13:10 | 43.88081 | 1.17323 | 27772 ft | 466 kts | 331° |
| 2026-05-01 13:11 | 43.90992 | 1.15330 | 28093 ft | 467 kts | 331° |
| 2026-05-01 13:11 | 43.93912 | 1.13321 | 28400 ft | 470 kts | 331° |
| 2026-05-01 13:11 | 43.96855 | 1.11292 | 28663 ft | 473 kts | 331° |
| 2026-05-01 13:11 | 43.99808 | 1.09253 | 28950 ft | 475 kts | 331° |
| 2026-05-01 13:12 | 44.02769 | 1.07206 | 29325 ft | 475 kts | 332° |
| 2026-05-01 13:12 | 44.05723 | 1.05163 | 29759 ft | 473 kts | 332° |
| 2026-05-01 13:12 | 44.08631 | 1.03151 | 30211 ft | 472 kts | 332° |
| 2026-05-01 13:12 | 44.11573 | 1.01113 | 30568 ft | 471 kts | 332° |
| 2026-05-01 13:13 | 44.14509 | 0.99076 | 30890 ft | 471 kts | 332° |
| 2026-05-01 13:13 | 44.17446 | 0.97037 | 31236 ft | 471 kts | 331° |
| 2026-05-01 13:13 | 44.20375 | 0.95000 | 31575 ft | 470 kts | 331° |
| 2026-05-01 13:13 | 44.23307 | 0.92960 | 31912 ft | 469 kts | 332° |
| 2026-05-01 13:14 | 44.26192 | 0.90950 | 32223 ft | 469 kts | 331° |
| 2026-05-01 13:14 | 44.29111 | 0.88913 | 32522 ft | 468 kts | 331° |
| 2026-05-01 13:14 | 44.32028 | 0.86877 | 32861 ft | 468 kts | 331° |
| 2026-05-01 13:14 | 44.34945 | 0.84838 | 33215 ft | 467 kts | 331° |
| 2026-05-01 13:15 | 44.37845 | 0.82808 | 33529 ft | 466 kts | 331° |
| 2026-05-01 13:15 | 44.40745 | 0.80776 | 33819 ft | 466 kts | 331° |
| 2026-05-01 13:15 | 44.43648 | 0.78739 | 34101 ft | 467 kts | 331° |
| 2026-05-01 13:15 | 44.46551 | 0.76700 | 34338 ft | 467 kts | 331° |
| 2026-05-01 13:16 | 44.49457 | 0.74658 | 34615 ft | 466 kts | 331° |
| 2026-05-01 13:16 | 44.52312 | 0.72649 | 34906 ft | 464 kts | 331° |
| 2026-05-01 13:16 | 44.55195 | 0.70617 | 35156 ft | 464 kts | 331° |
| 2026-05-01 13:17 | 44.63837 | 0.64515 | 35895 ft | 462 kts | 331° |
| 2026-05-01 13:17 | 44.66709 | 0.62482 | 36114 ft | 462 kts | 331° |
| 2026-05-01 13:18 | 44.75386 | 0.56326 | 36212 ft | 467 kts | 331° |
| 2026-05-01 13:18 | 44.81131 | 0.52241 | 36194 ft | 461 kts | 331° |
| 2026-05-01 13:19 | 44.86835 | 0.48175 | 36217 ft | 458 kts | 331° |
| 2026-05-01 13:20 | 44.95371 | 0.42071 | 36214 ft | 458 kts | 331° |
| 2026-05-01 13:20 | 45.01029 | 0.38014 | 36190 ft | 458 kts | 331° |
| 2026-05-01 13:21 | 45.09558 | 0.31883 | 36190 ft | 458 kts | 331° |
| 2026-05-01 13:21 | 45.15254 | 0.27776 | 36188 ft | 458 kts | 331° |
| 2026-05-01 13:22 | 45.20907 | 0.23690 | 36202 ft | 459 kts | 331° |
| 2026-05-01 13:22 | 45.26611 | 0.19559 | 36182 ft | 460 kts | 331° |
| 2026-05-01 13:23 | 45.32324 | 0.15412 | 36190 ft | 460 kts | 331° |
| 2026-05-01 13:23 | 45.38030 | 0.11266 | 36188 ft | 460 kts | 331° |
| 2026-05-01 13:24 | 45.43719 | 0.07144 | 36196 ft | 461 kts | 331° |
| 2026-05-01 13:25 | 45.52310 | 0.00904 | 36188 ft | 461 kts | 331° |
| 2026-05-01 13:25 | 45.58032 | -0.03266 | 36194 ft | 461 kts | 330° |
| 2026-05-01 13:26 | 45.63748 | -0.07443 | 36184 ft | 461 kts | 330° |
| 2026-05-01 13:26 | 45.69425 | -0.11601 | 36186 ft | 460 kts | 330° |
| 2026-05-01 13:27 | 45.75116 | -0.15779 | 36188 ft | 459 kts | 330° |
| 2026-05-01 13:27 | 45.83622 | -0.22041 | 36189 ft | 457 kts | 330° |
| 2026-05-01 13:28 | 45.92072 | -0.28284 | 36185 ft | 457 kts | 330° |
| 2026-05-01 13:29 | 46.03379 | -0.36672 | 36192 ft | 456 kts | 330° |
| 2026-05-01 13:31 | 46.20257 | -0.49264 | 36198 ft | 456 kts | 330° |
| 2026-05-01 13:32 | 46.34355 | -0.59851 | 36188 ft | 456 kts | 330° |
| 2026-05-01 13:33 | 46.48459 | -0.70394 | 36190 ft | 457 kts | 331° |
| 2026-05-01 13:34 | 46.59839 | -0.78672 | 36190 ft | 457 kts | 330° |
| 2026-05-01 13:35 | 46.68368 | -0.84934 | 36184 ft | 457 kts | 330° |
| 2026-05-01 13:36 | 46.76833 | -0.91175 | 36187 ft | 456 kts | 330° |
| 2026-05-01 13:36 | 46.85332 | -0.97463 | 36188 ft | 456 kts | 330° |
| 2026-05-01 13:37 | 46.90044 | -1.00957 | 36187 ft | 456 kts | 330° |
| 2026-05-01 13:37 | 46.96003 | -1.04202 | 36198 ft | 460 kts | 347° |
| 2026-05-01 13:38 | 47.05604 | -1.05581 | 36182 ft | 463 kts | 353° |
| 2026-05-01 13:39 | 47.12020 | -1.06346 | 36190 ft | 462 kts | 353° |
| 2026-05-01 13:39 | 47.18437 | -1.07187 | 36193 ft | 462 kts | 352° |
| 2026-05-01 13:40 | 47.24803 | -1.08053 | 36183 ft | 462 kts | 352° |
| 2026-05-01 13:40 | 47.31224 | -1.08930 | 36182 ft | 462 kts | 352° |
| 2026-05-01 13:41 | 47.37637 | -1.09804 | 36182 ft | 462 kts | 352° |
| 2026-05-01 13:41 | 47.44011 | -1.10674 | 36188 ft | 462 kts | 352° |
| 2026-05-01 13:42 | 47.50426 | -1.11552 | 36187 ft | 462 kts | 352° |
| 2026-05-01 13:42 | 47.56826 | -1.12435 | 36187 ft | 461 kts | 352° |
| 2026-05-01 13:43 | 47.63216 | -1.13325 | 36193 ft | 461 kts | 352° |
| 2026-05-01 13:43 | 47.69611 | -1.14219 | 36183 ft | 461 kts | 352° |
| 2026-05-01 13:44 | 47.75990 | -1.15111 | 36192 ft | 460 kts | 352° |
| 2026-05-01 13:44 | 47.82333 | -1.16001 | 36195 ft | 460 kts | 353° |
| 2026-05-01 13:45 | 47.88717 | -1.16898 | 36189 ft | 460 kts | 353° |
| 2026-05-01 13:45 | 47.95086 | -1.17795 | 36190 ft | 459 kts | 353° |
| 2026-05-01 13:46 | 48.01441 | -1.18693 | 36197 ft | 458 kts | 353° |
| 2026-05-01 13:46 | 48.07797 | -1.19592 | 36191 ft | 458 kts | 353° |
| 2026-05-01 13:47 | 48.14095 | -1.20486 | 36186 ft | 458 kts | 353° |
| 2026-05-01 13:47 | 48.20446 | -1.21390 | 36188 ft | 457 kts | 353° |
| 2026-05-01 13:48 | 48.26785 | -1.22294 | 36194 ft | 457 kts | 353° |
| 2026-05-01 13:48 | 48.33115 | -1.23199 | 36188 ft | 457 kts | 353° |
| 2026-05-01 13:49 | 48.39401 | -1.24100 | 36193 ft | 457 kts | 353° |
| 2026-05-01 13:49 | 48.45735 | -1.25011 | 36200 ft | 456 kts | 353° |
| 2026-05-01 13:50 | 48.52057 | -1.25922 | 36194 ft | 457 kts | 353° |
| 2026-05-01 13:50 | 48.58391 | -1.26836 | 36197 ft | 457 kts | 353° |
| 2026-05-01 13:51 | 48.64728 | -1.27754 | 36204 ft | 457 kts | 353° |
| 2026-05-01 13:51 | 48.71057 | -1.28673 | 36201 ft | 457 kts | 353° |
| 2026-05-01 13:52 | 48.77354 | -1.29589 | 36204 ft | 457 kts | 353° |
| 2026-05-01 13:52 | 48.83694 | -1.30514 | 36203 ft | 458 kts | 353° |
| 2026-05-01 13:53 | 48.90047 | -1.31443 | 36199 ft | 458 kts | 353° |
| 2026-05-01 13:53 | 48.99595 | -1.32844 | 36207 ft | 460 kts | 353° |
| 2026-05-01 13:54 | 49.05986 | -1.33786 | 36208 ft | 462 kts | 353° |
| 2026-05-01 13:54 | 49.12393 | -1.34731 | 36204 ft | 463 kts | 353° |
| 2026-05-01 13:55 | 49.18782 | -1.35676 | 36202 ft | 464 kts | 353° |
| 2026-05-01 13:55 | 49.25223 | -1.36632 | 36201 ft | 465 kts | 353° |
| 2026-05-01 13:56 | 49.31680 | -1.37592 | 36208 ft | 466 kts | 353° |
| 2026-05-01 13:56 | 49.38136 | -1.38555 | 36205 ft | 466 kts | 353° |
| 2026-05-01 13:57 | 49.44602 | -1.39522 | 36208 ft | 466 kts | 353° |
| 2026-05-01 13:57 | 49.51012 | -1.40483 | 36213 ft | 466 kts | 353° |
| 2026-05-01 13:58 | 49.57465 | -1.41453 | 36207 ft | 465 kts | 353° |
| 2026-05-01 13:58 | 49.63940 | -1.41533 | 36219 ft | 465 kts | 3° |
| 2026-05-01 13:59 | 49.70413 | -1.40802 | 36212 ft | 465 kts | 4° |
| 2026-05-01 13:59 | 49.76835 | -1.40111 | 36215 ft | 465 kts | 3° |
| 2026-05-01 14:00 | 49.83290 | -1.39508 | 36209 ft | 465 kts | 2° |
| 2026-05-01 14:00 | 49.89754 | -1.38931 | 36214 ft | 464 kts | 2° |
| 2026-05-01 14:01 | 49.96220 | -1.38346 | 36218 ft | 465 kts | 3° |
| 2026-05-01 14:01 | 50.02671 | -1.37503 | 36214 ft | 465 kts | 8° |
| 2026-05-01 14:02 | 50.09065 | -1.35904 | 36215 ft | 465 kts | 9° |
| 2026-05-01 14:02 | 50.15463 | -1.34216 | 36209 ft | 466 kts | 9° |
| 2026-05-01 14:03 | 50.21822 | -1.32605 | 36206 ft | 467 kts | 9° |
| 2026-05-01 14:03 | 50.28243 | -1.31011 | 36209 ft | 467 kts | 9° |
| 2026-05-01 14:04 | 50.34678 | -1.29412 | 36204 ft | 468 kts | 9° |
| 2026-05-01 14:04 | 50.40031 | -1.28075 | 36203 ft | 468 kts | 9° |
| 2026-05-01 14:05 | 50.47526 | -1.26145 | 36197 ft | 469 kts | 13° |
| 2026-05-01 14:05 | 50.53590 | -1.22469 | 36195 ft | 467 kts | 32° |
| 2026-05-01 14:06 | 50.59069 | -1.16951 | 36198 ft | 468 kts | 34° |
| 2026-05-01 14:06 | 50.64531 | -1.11355 | 36196 ft | 468 kts | 34° |
| 2026-05-01 14:07 | 50.70027 | -1.05826 | 36188 ft | 469 kts | 33° |
| 2026-05-01 14:08 | 50.78264 | -0.97567 | 36187 ft | 469 kts | 33° |
| 2026-05-01 14:08 | 50.83991 | -0.92579 | 36169 ft | 471 kts | 20° |
| 2026-05-01 14:09 | 50.90223 | -0.89364 | 36182 ft | 472 kts | 18° |
| 2026-05-01 14:09 | 50.96469 | -0.86271 | 36177 ft | 472 kts | 18° |
| 2026-05-01 14:10 | 51.02731 | -0.83086 | 36167 ft | 473 kts | 19° |
| 2026-05-01 14:10 | 51.08994 | -0.79835 | 36159 ft | 473 kts | 19° |
| 2026-05-01 14:11 | 51.15266 | -0.76558 | 36155 ft | 474 kts | 19° |
| 2026-05-01 14:11 | 51.24661 | -0.71635 | 36157 ft | 474 kts | 19° |
| 2026-05-01 14:12 | 51.30922 | -0.68345 | 36157 ft | 474 kts | 19° |
| 2026-05-01 14:12 | 51.37182 | -0.65047 | 36156 ft | 473 kts | 19° |
| 2026-05-01 14:13 | 51.42387 | -0.62297 | 36158 ft | 473 kts | 19° |
| 2026-05-01 14:13 | 51.49704 | -0.58420 | 36158 ft | 473 kts | 19° |
| 2026-05-01 14:14 | 51.55906 | -0.55123 | 36158 ft | 473 kts | 19° |
| 2026-05-01 14:14 | 51.62155 | -0.51793 | 36154 ft | 474 kts | 18° |
| 2026-05-01 14:15 | 51.65364 | -0.50558 | 36147 ft | 474 kts | 6° |
| 2026-05-01 14:15 | 51.68653 | -0.50407 | 36162 ft | 473 kts | 355° |
| 2026-05-01 14:15 | 51.75047 | -0.52758 | 36162 ft | 471 kts | 340° |
| 2026-05-01 14:16 | 51.80861 | -0.56020 | 36160 ft | 472 kts | 339° |
| 2026-05-01 14:16 | 51.87042 | -0.59433 | 36149 ft | 473 kts | 340° |
| 2026-05-01 14:17 | 51.93306 | -0.62824 | 35718 ft | 480 kts | 340° |
| 2026-05-01 14:17 | 51.96472 | -0.64533 | 35145 ft | 479 kts | 340° |
| 2026-05-01 14:17 | 51.99651 | -0.66251 | 34511 ft | 480 kts | 340° |
| 2026-05-01 14:18 | 52.02824 | -0.67970 | 33820 ft | 481 kts | 340° |
| 2026-05-01 14:18 | 52.06000 | -0.69695 | 33076 ft | 481 kts | 340° |
| 2026-05-01 14:18 | 52.09182 | -0.71426 | 32357 ft | 482 kts | 340° |
| 2026-05-01 14:18 | 52.11287 | -0.72583 | 31876 ft | 482 kts | 338° |
| 2026-05-01 14:19 | 52.15343 | -0.75648 | 30902 ft | 480 kts | 326° |
| 2026-05-01 14:19 | 52.18130 | -0.78501 | 30282 ft | 479 kts | 324° |
| 2026-05-01 14:19 | 52.20925 | -0.81407 | 29698 ft | 475 kts | 325° |
| 2026-05-01 14:19 | 52.23722 | -0.84242 | 29137 ft | 470 kts | 326° |
| 2026-05-01 14:20 | 52.26505 | -0.87009 | 28610 ft | 465 kts | 326° |
| 2026-05-01 14:20 | 52.31994 | -0.92434 | 27559 ft | 456 kts | 326° |
| 2026-05-01 14:20 | 52.34700 | -0.95116 | 27037 ft | 452 kts | 326° |
| 2026-05-01 14:21 | 52.37379 | -0.97780 | 26525 ft | 449 kts | 326° |
| 2026-05-01 14:21 | 52.40040 | -1.00432 | 26038 ft | 445 kts | 326° |
| 2026-05-01 14:21 | 52.42675 | -1.03065 | 25544 ft | 442 kts | 326° |
| 2026-05-01 14:22 | 52.47897 | -1.08289 | 24568 ft | 437 kts | 326° |
| 2026-05-01 14:22 | 52.50455 | -1.10863 | 24068 ft | 434 kts | 325° |
| 2026-05-01 14:22 | 52.53024 | -1.13467 | 23546 ft | 433 kts | 325° |
| 2026-05-01 14:22 | 52.55576 | -1.16062 | 22988 ft | 430 kts | 325° |
| 2026-05-01 14:23 | 52.58113 | -1.18638 | 22474 ft | 427 kts | 325° |
| 2026-05-01 14:23 | 52.59788 | -1.20334 | 22143 ft | 424 kts | 325° |
| 2026-05-01 14:23 | 52.62292 | -1.22867 | 21667 ft | 421 kts | 325° |
| 2026-05-01 14:23 | 52.64779 | -1.25387 | 21167 ft | 418 kts | 325° |
| 2026-05-01 14:24 | 52.67252 | -1.27898 | 20695 ft | 415 kts | 325° |
| 2026-05-01 14:24 | 52.70499 | -1.31201 | 20053 ft | 412 kts | 325° |
| 2026-05-01 14:24 | 52.72939 | -1.33684 | 19581 ft | 412 kts | 326° |
| 2026-05-01 14:24 | 52.74589 | -1.35362 | 19210 ft | 411 kts | 326° |
| 2026-05-01 14:25 | 52.77020 | -1.37837 | 18730 ft | 410 kts | 325° |
| 2026-05-01 14:25 | 52.79444 | -1.40310 | 18218 ft | 410 kts | 326° |
| 2026-05-01 14:25 | 52.81874 | -1.42791 | 17691 ft | 410 kts | 326° |
| 2026-05-01 14:25 | 52.84292 | -1.45264 | 17189 ft | 407 kts | 326° |
| 2026-05-01 14:26 | 52.86664 | -1.47693 | 16710 ft | 405 kts | 326° |
| 2026-05-01 14:26 | 52.91459 | -1.52614 | 15787 ft | 401 kts | 326° |
| 2026-05-01 14:26 | 52.93802 | -1.55024 | 15316 ft | 399 kts | 326° |
| 2026-05-01 14:27 | 52.96153 | -1.57445 | 14845 ft | 396 kts | 325° |
| 2026-05-01 14:27 | 52.98479 | -1.59844 | 14384 ft | 393 kts | 325° |
| 2026-05-01 14:27 | 53.00793 | -1.62232 | 13938 ft | 390 kts | 325° |
| 2026-05-01 14:28 | 53.05376 | -1.66955 | 12945 ft | 384 kts | 328° |
| 2026-05-01 14:28 | 53.07875 | -1.68529 | 12510 ft | 383 kts | 346° |
| 2026-05-01 14:28 | 53.10438 | -1.69359 | 12149 ft | 377 kts | 349° |
| 2026-05-01 14:28 | 53.13007 | -1.70072 | 11675 ft | 369 kts | 350° |
| 2026-05-01 14:29 | 53.15506 | -1.70746 | 11172 ft | 360 kts | 350° |
| 2026-05-01 14:29 | 53.17953 | -1.71399 | 10685 ft | 352 kts | 350° |
| 2026-05-01 14:30 | 53.24976 | -1.73250 | 9426 ft | 328 kts | 350° |
| 2026-05-01 14:30 | 53.27207 | -1.73819 | 9010 ft | 321 kts | 350° |
| 2026-05-01 14:30 | 53.29393 | -1.74369 | 8599 ft | 315 kts | 350° |
| 2026-05-01 14:31 | 53.33653 | -1.75436 | 7781 ft | 304 kts | 350° |
| 2026-05-01 14:31 | 53.35707 | -1.75948 | 7395 ft | 300 kts | 350° |
| 2026-05-01 14:31 | 53.37664 | -1.76944 | 6962 ft | 291 kts | 326° |
| 2026-05-01 14:31 | 53.39203 | -1.79048 | 6620 ft | 282 kts | 311° |
| 2026-05-01 14:32 | 53.40474 | -1.81502 | 6219 ft | 278 kts | 306° |
| 2026-05-01 14:32 | 53.41687 | -1.84003 | 5814 ft | 276 kts | 305° |
| 2026-05-01 14:32 | 53.42885 | -1.86492 | 5404 ft | 272 kts | 305° |
| 2026-05-01 14:32 | 53.44068 | -1.88965 | 4953 ft | 271 kts | 305° |
| 2026-05-01 14:33 | 53.45243 | -1.91436 | 4523 ft | 270 kts | 305° |
| 2026-05-01 14:33 | 53.46410 | -1.93911 | 4092 ft | 270 kts | 305° |
| 2026-05-01 14:33 | 53.47548 | -1.96382 | 3810 ft | 262 kts | 300° |
| 2026-05-01 14:33 | 53.48119 | -1.99128 | 3626 ft | 240 kts | 265° |
| 2026-05-01 14:34 | 53.47664 | -2.01633 | 3567 ft | 215 kts | 238° |
| 2026-05-01 14:34 | 53.46899 | -2.03670 | 3499 ft | 204 kts | 233° |
| 2026-05-01 14:34 | 53.46069 | -2.05517 | 3317 ft | 195 kts | 229° |
| 2026-05-01 14:34 | 53.45217 | -2.07277 | 3067 ft | 192 kts | 229° |
| 2026-05-01 14:35 | 53.44381 | -2.08991 | 2827 ft | 189 kts | 229° |
| 2026-05-01 14:35 | 53.43570 | -2.10654 | 2588 ft | 179 kts | 230° |
| 2026-05-01 14:35 | 53.42804 | -2.12227 | 2339 ft | 169 kts | 230° |
| 2026-05-01 14:35 | 53.42081 | -2.13711 | 2120 ft | 158 kts | 230° |
| 2026-05-01 14:36 | 53.41405 | -2.15100 | 1953 ft | 148 kts | 230° |
| 2026-05-01 14:36 | 53.40759 | -2.16427 | 1742 ft | 145 kts | 231° |
| 2026-05-01 14:36 | 53.40126 | -2.17734 | 1531 ft | 143 kts | 231° |
| 2026-05-01 14:36 | 53.39477 | -2.19020 | 1442 ft | 144 kts | 230° |
| 2026-05-01 14:37 | 53.38848 | -2.20309 | 1280 ft | 141 kts | 231° |
| 2026-05-01 14:37 | 53.38214 | -2.21608 | 1046 ft | 147 kts | 230° |
| 2026-05-01 14:37 | 53.37577 | -2.22938 | 788 ft | 149 kts | 231° |
| 2026-05-01 14:37 | 53.36919 | -2.24289 | 564 ft | 150 kts | 233° |
| 2026-05-01 14:38 | 53.36280 | -2.25609 | 331 ft | 140 kts | 234° |
| 2026-05-01 14:38 | 53.35715 | -2.26790 | 267 ft | 106 kts | 231° |
| 2026-05-01 14:38 | 53.35390 | -2.27465 | 242 ft | 43 kts | 232° |
| 2026-05-01 14:38 | 53.35294 | -2.27713 | 238 ft | 22 kts | 243° |
| 2026-05-01 14:39 | 53.35257 | -2.27888 | 235 ft | 7 kts | 258° |
| 2026-05-01 14:39 | 53.35247 | -2.27987 | 234 ft | 11 kts | 261° |
| 2026-05-01 14:39 | 53.35234 | -2.28119 | 231 ft | 8 kts | 261° |
| 2026-05-01 14:39 | 53.35243 | -2.28212 | 231 ft | 8 kts | 311° |
| 2026-05-01 14:40 | 53.35292 | -2.28201 | 232 ft | 8 kts | 54° |
| 2026-05-01 14:40 | 53.35326 | -2.28130 | 237 ft | 8 kts | 45° |
| 2026-05-01 14:40 | 53.35372 | -2.28055 | 238 ft | 11 kts | 44° |
| 2026-05-01 14:40 | 53.35431 | -2.27961 | 236 ft | 12 kts | 43° |
| 2026-05-01 14:41 | 53.35489 | -2.27868 | 239 ft | 11 kts | 44° |
| 2026-05-01 14:41 | 53.35550 | -2.27768 | 237 ft | 13 kts | 44° |
| 2026-05-01 14:41 | 53.35586 | -2.27711 | 241 ft | 5 kts | 44° |
| 2026-05-01 14:41 | 53.35612 | -2.27669 | 242 ft | 4 kts | 44° |
| 2026-05-01 14:42 | 53.35634 | -2.27633 | 243 ft | 4 kts | 43° |
| 2026-05-01 14:42 | 53.35647 | -2.27583 | 245 ft | 7 kts | 92° |
| 2026-05-01 14:42 | 53.35617 | -2.27490 | 244 ft | 11 kts | 96° |
| 2026-05-01 14:42 | 53.35653 | -2.27385 | 249 ft | 10 kts | 50° |
| 2026-05-01 14:43 | 53.35699 | -2.27290 | 254 ft | 11 kts | 51° |
| 2026-05-01 14:43 | 53.35759 | -2.27167 | 254 ft | 17 kts | 51° |
| 2026-05-01 14:43 | 53.35830 | -2.26997 | 255 ft | 18 kts | 60° |
| 2026-05-01 14:43 | 53.35902 | -2.26832 | 255 ft | 17 kts | 55° |
| 2026-05-01 14:44 | 53.35971 | -2.26671 | 255 ft | 17 kts | 52° |
| 2026-05-01 14:44 | 53.36114 | -2.26651 | 254 ft | 11 kts | 326° |
| 2026-05-01 14:44 | 53.36139 | -2.26680 | 254 ft | 2 kts | 326° |
| 2026-05-01 14:45 | 53.36144 | -2.26685 | 254 ft | 0 kts | 326° |